<?xml version="1.0" encoding="UTF-8" standalone="no" ?>
<gpx xmlns="http://www.topografix.com/GPX/1/1" xmlns:xsi="http://www.w3.org/2001/XMLSchema-instance" xsi:schemaLocation="http://www.topografix.com/GPX/1/1 http://www.topografix.com/GPX/1/1/gpx.xsd" version="1.1" creator="VisuGPX - https://www.visugpx.com">
  <metadata>
    <name>rando santé autour du lac de st andré</name>
    <desc><![CDATA[comment ...]]></desc>
  </metadata>
  <trk>
    <name><![CDATA[13 oct. 2019]]></name>
    <cmt><![CDATA[09:35:08]]></cmt>
    <desc><![CDATA[comment ...]]></desc>
    <trkseg>
      <trkpt lat="44.89928" lon="4.18539">
        <ele>1514</ele>
        <time>2019-10-13T07:35:08Z</time>
      </trkpt>
      <trkpt lat="44.89926" lon="4.18539">
        <ele>1514</ele>
        <time>2019-10-13T07:35:09Z</time>
      </trkpt>
      <trkpt lat="44.8992" lon="4.18533">
        <ele>1514</ele>
        <time>2019-10-13T07:35:19Z</time>
      </trkpt>
      <trkpt lat="44.89921" lon="4.18525">
        <ele>1514</ele>
        <time>2019-10-13T07:35:26Z</time>
      </trkpt>
      <trkpt lat="44.89924" lon="4.18523">
        <ele>1515</ele>
        <time>2019-10-13T07:35:43Z</time>
      </trkpt>
      <trkpt lat="44.89921" lon="4.18515">
        <ele>1515</ele>
        <time>2019-10-13T07:36:39Z</time>
      </trkpt>
      <trkpt lat="44.89921" lon="4.18499">
        <ele>1515</ele>
        <time>2019-10-13T07:36:55Z</time>
      </trkpt>
      <trkpt lat="44.8991" lon="4.18493">
        <ele>1514</ele>
        <time>2019-10-13T07:37:13Z</time>
      </trkpt>
      <trkpt lat="44.89902" lon="4.18483">
        <ele>1514</ele>
        <time>2019-10-13T07:37:23Z</time>
      </trkpt>
      <trkpt lat="44.89887" lon="4.18478">
        <ele>1514</ele>
        <time>2019-10-13T07:37:55Z</time>
      </trkpt>
      <trkpt lat="44.89842" lon="4.18464">
        <ele>1513</ele>
        <time>2019-10-13T07:38:31Z</time>
      </trkpt>
      <trkpt lat="44.89826" lon="4.18456">
        <ele>1514</ele>
        <time>2019-10-13T07:39:19Z</time>
      </trkpt>
      <trkpt lat="44.89819" lon="4.18451">
        <ele>1514</ele>
        <time>2019-10-13T07:39:26Z</time>
      </trkpt>
      <trkpt lat="44.89787" lon="4.18449">
        <ele>1515</ele>
        <time>2019-10-13T07:39:51Z</time>
      </trkpt>
      <trkpt lat="44.8978" lon="4.18448">
        <ele>1516</ele>
        <time>2019-10-13T07:39:56Z</time>
      </trkpt>
      <trkpt lat="44.89734" lon="4.18426">
        <ele>1518</ele>
        <time>2019-10-13T07:40:34Z</time>
      </trkpt>
      <trkpt lat="44.89719" lon="4.18426">
        <ele>1519</ele>
        <time>2019-10-13T07:40:56Z</time>
      </trkpt>
      <trkpt lat="44.89679" lon="4.18415">
        <ele>1522</ele>
        <time>2019-10-13T07:41:33Z</time>
      </trkpt>
      <trkpt lat="44.89657" lon="4.18413">
        <ele>1524</ele>
        <time>2019-10-13T07:42:04Z</time>
      </trkpt>
      <trkpt lat="44.89641" lon="4.18412">
        <ele>1527</ele>
        <time>2019-10-13T07:42:39Z</time>
      </trkpt>
      <trkpt lat="44.89634" lon="4.18413">
        <ele>1527</ele>
        <time>2019-10-13T07:42:42Z</time>
      </trkpt>
      <trkpt lat="44.89609" lon="4.18408">
        <ele>1528</ele>
        <time>2019-10-13T07:43:05Z</time>
      </trkpt>
      <trkpt lat="44.89586" lon="4.18408">
        <ele>1530</ele>
        <time>2019-10-13T07:43:26Z</time>
      </trkpt>
      <trkpt lat="44.89562" lon="4.18381">
        <ele>1531</ele>
        <time>2019-10-13T07:43:55Z</time>
      </trkpt>
      <trkpt lat="44.89556" lon="4.18379">
        <ele>1532</ele>
        <time>2019-10-13T07:44:02Z</time>
      </trkpt>
      <trkpt lat="44.89545" lon="4.1838">
        <ele>1534</ele>
        <time>2019-10-13T07:44:22Z</time>
      </trkpt>
      <trkpt lat="44.89541" lon="4.18374">
        <ele>1541</ele>
        <time>2019-10-13T07:46:29Z</time>
      </trkpt>
      <trkpt lat="44.89537" lon="4.18368">
        <ele>1542</ele>
        <time>2019-10-13T07:46:48Z</time>
      </trkpt>
      <trkpt lat="44.89532" lon="4.18369">
        <ele>1542</ele>
        <time>2019-10-13T07:46:53Z</time>
      </trkpt>
      <trkpt lat="44.89526" lon="4.18371">
        <ele>1542</ele>
        <time>2019-10-13T07:46:57Z</time>
      </trkpt>
      <trkpt lat="44.89502" lon="4.18368">
        <ele>1543</ele>
        <time>2019-10-13T07:47:15Z</time>
      </trkpt>
      <trkpt lat="44.89468" lon="4.18376">
        <ele>1544</ele>
        <time>2019-10-13T07:47:50Z</time>
      </trkpt>
      <trkpt lat="44.89446" lon="4.18379">
        <ele>1546</ele>
        <time>2019-10-13T07:48:16Z</time>
      </trkpt>
      <trkpt lat="44.89442" lon="4.18382">
        <ele>1546</ele>
        <time>2019-10-13T07:48:21Z</time>
      </trkpt>
      <trkpt lat="44.89436" lon="4.18391">
        <ele>1547</ele>
        <time>2019-10-13T07:48:29Z</time>
      </trkpt>
      <trkpt lat="44.89435" lon="4.18403">
        <ele>1548</ele>
        <time>2019-10-13T07:48:44Z</time>
      </trkpt>
      <trkpt lat="44.8943" lon="4.18401">
        <ele>1561</ele>
        <time>2019-10-13T07:54:46Z</time>
      </trkpt>
      <trkpt lat="44.89431" lon="4.18393">
        <ele>1562</ele>
        <time>2019-10-13T07:56:00Z</time>
      </trkpt>
      <trkpt lat="44.89433" lon="4.18389">
        <ele>1562</ele>
        <time>2019-10-13T07:56:03Z</time>
      </trkpt>
      <trkpt lat="44.89431" lon="4.18384">
        <ele>1562</ele>
        <time>2019-10-13T07:56:25Z</time>
      </trkpt>
      <trkpt lat="44.89427" lon="4.18379">
        <ele>1561</ele>
        <time>2019-10-13T07:56:35Z</time>
      </trkpt>
      <trkpt lat="44.89423" lon="4.18372">
        <ele>1561</ele>
        <time>2019-10-13T07:56:45Z</time>
      </trkpt>
      <trkpt lat="44.89412" lon="4.18369">
        <ele>1561</ele>
        <time>2019-10-13T07:56:57Z</time>
      </trkpt>
      <trkpt lat="44.89407" lon="4.18371">
        <ele>1561</ele>
        <time>2019-10-13T07:57:02Z</time>
      </trkpt>
      <trkpt lat="44.89401" lon="4.18371">
        <ele>1561</ele>
        <time>2019-10-13T07:57:07Z</time>
      </trkpt>
      <trkpt lat="44.89396" lon="4.18376">
        <ele>1561</ele>
        <time>2019-10-13T07:57:13Z</time>
      </trkpt>
      <trkpt lat="44.89381" lon="4.18391">
        <ele>1561</ele>
        <time>2019-10-13T07:57:36Z</time>
      </trkpt>
      <trkpt lat="44.89374" lon="4.18401">
        <ele>1561</ele>
        <time>2019-10-13T07:58:11Z</time>
      </trkpt>
      <trkpt lat="44.89371" lon="4.18404">
        <ele>1561</ele>
        <time>2019-10-13T07:58:20Z</time>
      </trkpt>
      <trkpt lat="44.89368" lon="4.18411">
        <ele>1561</ele>
        <time>2019-10-13T07:58:28Z</time>
      </trkpt>
      <trkpt lat="44.89364" lon="4.18418">
        <ele>1561</ele>
        <time>2019-10-13T07:58:36Z</time>
      </trkpt>
      <trkpt lat="44.89345" lon="4.18435">
        <ele>1560</ele>
        <time>2019-10-13T07:59:10Z</time>
      </trkpt>
      <trkpt lat="44.89342" lon="4.18441">
        <ele>1559</ele>
        <time>2019-10-13T07:59:19Z</time>
      </trkpt>
      <trkpt lat="44.89337" lon="4.18445">
        <ele>1559</ele>
        <time>2019-10-13T07:59:27Z</time>
      </trkpt>
      <trkpt lat="44.89326" lon="4.18453">
        <ele>1558</ele>
        <time>2019-10-13T07:59:43Z</time>
      </trkpt>
      <trkpt lat="44.89321" lon="4.18454">
        <ele>1558</ele>
        <time>2019-10-13T07:59:56Z</time>
      </trkpt>
      <trkpt lat="44.89316" lon="4.18461">
        <ele>1557</ele>
        <time>2019-10-13T08:00:04Z</time>
      </trkpt>
      <trkpt lat="44.89311" lon="4.18465">
        <ele>1557</ele>
        <time>2019-10-13T08:00:14Z</time>
      </trkpt>
      <trkpt lat="44.89306" lon="4.18464">
        <ele>1557</ele>
        <time>2019-10-13T08:00:21Z</time>
      </trkpt>
      <trkpt lat="44.89301" lon="4.18461">
        <ele>1556</ele>
        <time>2019-10-13T08:00:29Z</time>
      </trkpt>
      <trkpt lat="44.8929" lon="4.18455">
        <ele>1556</ele>
        <time>2019-10-13T08:00:48Z</time>
      </trkpt>
      <trkpt lat="44.89286" lon="4.18451">
        <ele>1555</ele>
        <time>2019-10-13T08:01:20Z</time>
      </trkpt>
      <trkpt lat="44.89276" lon="4.1846">
        <ele>1555</ele>
        <time>2019-10-13T08:01:32Z</time>
      </trkpt>
      <trkpt lat="44.8927" lon="4.18464">
        <ele>1554</ele>
        <time>2019-10-13T08:01:40Z</time>
      </trkpt>
      <trkpt lat="44.89265" lon="4.18466">
        <ele>1554</ele>
        <time>2019-10-13T08:01:50Z</time>
      </trkpt>
      <trkpt lat="44.89258" lon="4.18468">
        <ele>1554</ele>
        <time>2019-10-13T08:02:01Z</time>
      </trkpt>
      <trkpt lat="44.8925" lon="4.18465">
        <ele>1554</ele>
        <time>2019-10-13T08:02:08Z</time>
      </trkpt>
      <trkpt lat="44.89244" lon="4.18466">
        <ele>1554</ele>
        <time>2019-10-13T08:02:11Z</time>
      </trkpt>
      <trkpt lat="44.89239" lon="4.18465">
        <ele>1554</ele>
        <time>2019-10-13T08:02:15Z</time>
      </trkpt>
      <trkpt lat="44.89227" lon="4.18462">
        <ele>1554</ele>
        <time>2019-10-13T08:02:31Z</time>
      </trkpt>
      <trkpt lat="44.89218" lon="4.18468">
        <ele>1554</ele>
        <time>2019-10-13T08:02:47Z</time>
      </trkpt>
      <trkpt lat="44.89216" lon="4.18472">
        <ele>1553</ele>
        <time>2019-10-13T08:02:58Z</time>
      </trkpt>
      <trkpt lat="44.89213" lon="4.18476">
        <ele>1553</ele>
        <time>2019-10-13T08:03:06Z</time>
      </trkpt>
      <trkpt lat="44.89209" lon="4.18476">
        <ele>1553</ele>
        <time>2019-10-13T08:03:31Z</time>
      </trkpt>
      <trkpt lat="44.89206" lon="4.18474">
        <ele>1553</ele>
        <time>2019-10-13T08:03:36Z</time>
      </trkpt>
      <trkpt lat="44.89202" lon="4.18472">
        <ele>1553</ele>
        <time>2019-10-13T08:03:41Z</time>
      </trkpt>
      <trkpt lat="44.89192" lon="4.18482">
        <ele>1552</ele>
        <time>2019-10-13T08:05:35Z</time>
      </trkpt>
      <trkpt lat="44.89193" lon="4.18491">
        <ele>1553</ele>
        <time>2019-10-13T08:10:52Z</time>
      </trkpt>
      <trkpt lat="44.89188" lon="4.18506">
        <ele>1552</ele>
        <time>2019-10-13T08:11:29Z</time>
      </trkpt>
      <trkpt lat="44.89179" lon="4.18516">
        <ele>1551</ele>
        <time>2019-10-13T08:11:42Z</time>
      </trkpt>
      <trkpt lat="44.89175" lon="4.18531">
        <ele>1550</ele>
        <time>2019-10-13T08:11:54Z</time>
      </trkpt>
      <trkpt lat="44.89176" lon="4.1854">
        <ele>1550</ele>
        <time>2019-10-13T08:12:01Z</time>
      </trkpt>
      <trkpt lat="44.89174" lon="4.18548">
        <ele>1549</ele>
        <time>2019-10-13T08:12:08Z</time>
      </trkpt>
      <trkpt lat="44.89165" lon="4.18557">
        <ele>1549</ele>
        <time>2019-10-13T08:12:26Z</time>
      </trkpt>
      <trkpt lat="44.89161" lon="4.18562">
        <ele>1548</ele>
        <time>2019-10-13T08:12:53Z</time>
      </trkpt>
      <trkpt lat="44.89155" lon="4.18567">
        <ele>1548</ele>
        <time>2019-10-13T08:13:08Z</time>
      </trkpt>
      <trkpt lat="44.8915" lon="4.18569">
        <ele>1548</ele>
        <time>2019-10-13T08:13:14Z</time>
      </trkpt>
      <trkpt lat="44.89132" lon="4.18577">
        <ele>1547</ele>
        <time>2019-10-13T08:13:59Z</time>
      </trkpt>
      <trkpt lat="44.89125" lon="4.1858">
        <ele>1547</ele>
        <time>2019-10-13T08:14:38Z</time>
      </trkpt>
      <trkpt lat="44.89118" lon="4.18582">
        <ele>1546</ele>
        <time>2019-10-13T08:14:48Z</time>
      </trkpt>
      <trkpt lat="44.89111" lon="4.18579">
        <ele>1546</ele>
        <time>2019-10-13T08:14:58Z</time>
      </trkpt>
      <trkpt lat="44.89106" lon="4.18588">
        <ele>1546</ele>
        <time>2019-10-13T08:15:05Z</time>
      </trkpt>
      <trkpt lat="44.89101" lon="4.18595">
        <ele>1545</ele>
        <time>2019-10-13T08:15:13Z</time>
      </trkpt>
      <trkpt lat="44.89095" lon="4.18602">
        <ele>1545</ele>
        <time>2019-10-13T08:15:23Z</time>
      </trkpt>
      <trkpt lat="44.89091" lon="4.18612">
        <ele>1543</ele>
        <time>2019-10-13T08:15:45Z</time>
      </trkpt>
      <trkpt lat="44.89085" lon="4.1862">
        <ele>1543</ele>
        <time>2019-10-13T08:15:53Z</time>
      </trkpt>
      <trkpt lat="44.89081" lon="4.18628">
        <ele>1542</ele>
        <time>2019-10-13T08:15:58Z</time>
      </trkpt>
      <trkpt lat="44.89075" lon="4.18636">
        <ele>1541</ele>
        <time>2019-10-13T08:16:08Z</time>
      </trkpt>
      <trkpt lat="44.89073" lon="4.18643">
        <ele>1540</ele>
        <time>2019-10-13T08:16:20Z</time>
      </trkpt>
      <trkpt lat="44.89068" lon="4.18647">
        <ele>1540</ele>
        <time>2019-10-13T08:16:31Z</time>
      </trkpt>
      <trkpt lat="44.89064" lon="4.18649">
        <ele>1538</ele>
        <time>2019-10-13T08:16:48Z</time>
      </trkpt>
      <trkpt lat="44.89061" lon="4.18656">
        <ele>1538</ele>
        <time>2019-10-13T08:16:56Z</time>
      </trkpt>
      <trkpt lat="44.89052" lon="4.18665">
        <ele>1537</ele>
        <time>2019-10-13T08:17:16Z</time>
      </trkpt>
      <trkpt lat="44.89047" lon="4.18669">
        <ele>1536</ele>
        <time>2019-10-13T08:17:28Z</time>
      </trkpt>
      <trkpt lat="44.89042" lon="4.18675">
        <ele>1535</ele>
        <time>2019-10-13T08:17:33Z</time>
      </trkpt>
      <trkpt lat="44.89038" lon="4.18681">
        <ele>1535</ele>
        <time>2019-10-13T08:17:38Z</time>
      </trkpt>
      <trkpt lat="44.89027" lon="4.18701">
        <ele>1533</ele>
        <time>2019-10-13T08:17:54Z</time>
      </trkpt>
      <trkpt lat="44.89027" lon="4.18705">
        <ele>1532</ele>
        <time>2019-10-13T08:18:10Z</time>
      </trkpt>
      <trkpt lat="44.89024" lon="4.18712">
        <ele>1530</ele>
        <time>2019-10-13T08:18:32Z</time>
      </trkpt>
      <trkpt lat="44.8902" lon="4.18716">
        <ele>1529</ele>
        <time>2019-10-13T08:18:41Z</time>
      </trkpt>
      <trkpt lat="44.89016" lon="4.18717">
        <ele>1527</ele>
        <time>2019-10-13T08:19:13Z</time>
      </trkpt>
      <trkpt lat="44.89014" lon="4.18724">
        <ele>1526</ele>
        <time>2019-10-13T08:19:25Z</time>
      </trkpt>
      <trkpt lat="44.8901" lon="4.18734">
        <ele>1524</ele>
        <time>2019-10-13T08:19:51Z</time>
      </trkpt>
      <trkpt lat="44.89007" lon="4.18742">
        <ele>1521</ele>
        <time>2019-10-13T08:20:25Z</time>
      </trkpt>
      <trkpt lat="44.89006" lon="4.18758">
        <ele>1519</ele>
        <time>2019-10-13T08:20:47Z</time>
      </trkpt>
      <trkpt lat="44.89004" lon="4.18782">
        <ele>1517</ele>
        <time>2019-10-13T08:21:08Z</time>
      </trkpt>
      <trkpt lat="44.88993" lon="4.18817">
        <ele>1514</ele>
        <time>2019-10-13T08:21:45Z</time>
      </trkpt>
      <trkpt lat="44.88992" lon="4.18825">
        <ele>1514</ele>
        <time>2019-10-13T08:21:51Z</time>
      </trkpt>
      <trkpt lat="44.88991" lon="4.18833">
        <ele>1513</ele>
        <time>2019-10-13T08:21:57Z</time>
      </trkpt>
      <trkpt lat="44.88989" lon="4.18841">
        <ele>1512</ele>
        <time>2019-10-13T08:22:04Z</time>
      </trkpt>
      <trkpt lat="44.88989" lon="4.18849">
        <ele>1512</ele>
        <time>2019-10-13T08:22:10Z</time>
      </trkpt>
      <trkpt lat="44.88989" lon="4.18857">
        <ele>1511</ele>
        <time>2019-10-13T08:22:16Z</time>
      </trkpt>
      <trkpt lat="44.88986" lon="4.18864">
        <ele>1511</ele>
        <time>2019-10-13T08:22:22Z</time>
      </trkpt>
      <trkpt lat="44.8898" lon="4.18879">
        <ele>1510</ele>
        <time>2019-10-13T08:22:35Z</time>
      </trkpt>
      <trkpt lat="44.8898" lon="4.18887">
        <ele>1509</ele>
        <time>2019-10-13T08:22:44Z</time>
      </trkpt>
      <trkpt lat="44.88981" lon="4.18895">
        <ele>1508</ele>
        <time>2019-10-13T08:22:53Z</time>
      </trkpt>
      <trkpt lat="44.88979" lon="4.189">
        <ele>1507</ele>
        <time>2019-10-13T08:23:08Z</time>
      </trkpt>
      <trkpt lat="44.88982" lon="4.18907">
        <ele>1507</ele>
        <time>2019-10-13T08:23:19Z</time>
      </trkpt>
      <trkpt lat="44.88987" lon="4.18914">
        <ele>1506</ele>
        <time>2019-10-13T08:23:25Z</time>
      </trkpt>
      <trkpt lat="44.88991" lon="4.18919">
        <ele>1505</ele>
        <time>2019-10-13T08:23:37Z</time>
      </trkpt>
      <trkpt lat="44.88994" lon="4.18922">
        <ele>1504</ele>
        <time>2019-10-13T08:23:45Z</time>
      </trkpt>
      <trkpt lat="44.88991" lon="4.18928">
        <ele>1503</ele>
        <time>2019-10-13T08:23:56Z</time>
      </trkpt>
      <trkpt lat="44.88986" lon="4.18932">
        <ele>1502</ele>
        <time>2019-10-13T08:24:11Z</time>
      </trkpt>
      <trkpt lat="44.88984" lon="4.18939">
        <ele>1502</ele>
        <time>2019-10-13T08:24:19Z</time>
      </trkpt>
      <trkpt lat="44.88981" lon="4.18947">
        <ele>1501</ele>
        <time>2019-10-13T08:24:38Z</time>
      </trkpt>
      <trkpt lat="44.88976" lon="4.1895">
        <ele>1500</ele>
        <time>2019-10-13T08:25:00Z</time>
      </trkpt>
      <trkpt lat="44.88972" lon="4.18951">
        <ele>1501</ele>
        <time>2019-10-13T08:25:21Z</time>
      </trkpt>
      <trkpt lat="44.88968" lon="4.18954">
        <ele>1502</ele>
        <time>2019-10-13T08:25:45Z</time>
      </trkpt>
      <trkpt lat="44.88965" lon="4.18954">
        <ele>1502</ele>
        <time>2019-10-13T08:26:03Z</time>
      </trkpt>
      <trkpt lat="44.88962" lon="4.18957">
        <ele>1503</ele>
        <time>2019-10-13T08:26:19Z</time>
      </trkpt>
      <trkpt lat="44.8896" lon="4.18962">
        <ele>1504</ele>
        <time>2019-10-13T08:26:29Z</time>
      </trkpt>
      <trkpt lat="44.88954" lon="4.18962">
        <ele>1505</ele>
        <time>2019-10-13T08:26:52Z</time>
      </trkpt>
      <trkpt lat="44.88954" lon="4.18966">
        <ele>1506</ele>
        <time>2019-10-13T08:27:04Z</time>
      </trkpt>
      <trkpt lat="44.8895" lon="4.18969">
        <ele>1509</ele>
        <time>2019-10-13T08:27:36Z</time>
      </trkpt>
      <trkpt lat="44.88947" lon="4.18971">
        <ele>1509</ele>
        <time>2019-10-13T08:27:42Z</time>
      </trkpt>
      <trkpt lat="44.88942" lon="4.18976">
        <ele>1511</ele>
        <time>2019-10-13T08:27:55Z</time>
      </trkpt>
      <trkpt lat="44.88942" lon="4.18981">
        <ele>1513</ele>
        <time>2019-10-13T08:28:11Z</time>
      </trkpt>
      <trkpt lat="44.88943" lon="4.18986">
        <ele>1516</ele>
        <time>2019-10-13T08:28:39Z</time>
      </trkpt>
      <trkpt lat="44.88945" lon="4.18991">
        <ele>1519</ele>
        <time>2019-10-13T08:29:10Z</time>
      </trkpt>
      <trkpt lat="44.88953" lon="4.1899">
        <ele>1521</ele>
        <time>2019-10-13T08:29:35Z</time>
      </trkpt>
      <trkpt lat="44.88949" lon="4.18989">
        <ele>1528</ele>
        <time>2019-10-13T08:31:38Z</time>
      </trkpt>
      <trkpt lat="44.8895" lon="4.18988">
        <ele>1540</ele>
        <time>2019-10-13T08:42:17Z</time>
      </trkpt>
      <trkpt lat="44.8895" lon="4.18996">
        <ele>1536</ele>
        <time>2019-10-13T08:44:20Z</time>
      </trkpt>
      <trkpt lat="44.88949" lon="4.19005">
        <ele>1536</ele>
        <time>2019-10-13T08:44:29Z</time>
      </trkpt>
      <trkpt lat="44.88947" lon="4.19013">
        <ele>1535</ele>
        <time>2019-10-13T08:44:36Z</time>
      </trkpt>
      <trkpt lat="44.88948" lon="4.19022">
        <ele>1535</ele>
        <time>2019-10-13T08:44:42Z</time>
      </trkpt>
      <trkpt lat="44.88947" lon="4.19027">
        <ele>1535</ele>
        <time>2019-10-13T08:44:45Z</time>
      </trkpt>
      <trkpt lat="44.88945" lon="4.19032">
        <ele>1535</ele>
        <time>2019-10-13T08:44:50Z</time>
      </trkpt>
      <trkpt lat="44.88943" lon="4.19037">
        <ele>1535</ele>
        <time>2019-10-13T08:44:55Z</time>
      </trkpt>
      <trkpt lat="44.88943" lon="4.19042">
        <ele>1535</ele>
        <time>2019-10-13T08:45:02Z</time>
      </trkpt>
      <trkpt lat="44.88945" lon="4.19047">
        <ele>1535</ele>
        <time>2019-10-13T08:45:13Z</time>
      </trkpt>
      <trkpt lat="44.88947" lon="4.19052">
        <ele>1535</ele>
        <time>2019-10-13T08:45:21Z</time>
      </trkpt>
      <trkpt lat="44.88947" lon="4.19057">
        <ele>1535</ele>
        <time>2019-10-13T08:45:27Z</time>
      </trkpt>
      <trkpt lat="44.88942" lon="4.19065">
        <ele>1535</ele>
        <time>2019-10-13T08:45:51Z</time>
      </trkpt>
      <trkpt lat="44.88943" lon="4.1907">
        <ele>1536</ele>
        <time>2019-10-13T08:46:07Z</time>
      </trkpt>
      <trkpt lat="44.88943" lon="4.19075">
        <ele>1537</ele>
        <time>2019-10-13T08:46:29Z</time>
      </trkpt>
      <trkpt lat="44.88945" lon="4.1908">
        <ele>1537</ele>
        <time>2019-10-13T08:46:42Z</time>
      </trkpt>
      <trkpt lat="44.88949" lon="4.19082">
        <ele>1537</ele>
        <time>2019-10-13T08:46:52Z</time>
      </trkpt>
      <trkpt lat="44.88952" lon="4.19083">
        <ele>1538</ele>
        <time>2019-10-13T08:47:05Z</time>
      </trkpt>
      <trkpt lat="44.88958" lon="4.19076">
        <ele>1538</ele>
        <time>2019-10-13T08:47:25Z</time>
      </trkpt>
      <trkpt lat="44.88962" lon="4.19075">
        <ele>1539</ele>
        <time>2019-10-13T08:47:32Z</time>
      </trkpt>
      <trkpt lat="44.88965" lon="4.19072">
        <ele>1540</ele>
        <time>2019-10-13T08:47:47Z</time>
      </trkpt>
      <trkpt lat="44.88966" lon="4.19074">
        <ele>1552</ele>
        <time>2019-10-13T08:51:04Z</time>
      </trkpt>
      <trkpt lat="44.88965" lon="4.1908">
        <ele>1552</ele>
        <time>2019-10-13T08:51:10Z</time>
      </trkpt>
      <trkpt lat="44.88961" lon="4.19082">
        <ele>1552</ele>
        <time>2019-10-13T08:51:39Z</time>
      </trkpt>
      <trkpt lat="44.88958" lon="4.19085">
        <ele>1552</ele>
        <time>2019-10-13T08:51:44Z</time>
      </trkpt>
      <trkpt lat="44.88955" lon="4.19089">
        <ele>1552</ele>
        <time>2019-10-13T08:51:48Z</time>
      </trkpt>
      <trkpt lat="44.88952" lon="4.19093">
        <ele>1552</ele>
        <time>2019-10-13T08:51:57Z</time>
      </trkpt>
      <trkpt lat="44.8895" lon="4.19097">
        <ele>1552</ele>
        <time>2019-10-13T08:52:01Z</time>
      </trkpt>
      <trkpt lat="44.88948" lon="4.19102">
        <ele>1552</ele>
        <time>2019-10-13T08:52:06Z</time>
      </trkpt>
      <trkpt lat="44.88941" lon="4.19105">
        <ele>1551</ele>
        <time>2019-10-13T08:52:18Z</time>
      </trkpt>
      <trkpt lat="44.8893" lon="4.1912">
        <ele>1550</ele>
        <time>2019-10-13T08:52:51Z</time>
      </trkpt>
      <trkpt lat="44.88922" lon="4.19134">
        <ele>1549</ele>
        <time>2019-10-13T08:53:04Z</time>
      </trkpt>
      <trkpt lat="44.88915" lon="4.19155">
        <ele>1547</ele>
        <time>2019-10-13T08:53:23Z</time>
      </trkpt>
      <trkpt lat="44.88913" lon="4.1916">
        <ele>1546</ele>
        <time>2019-10-13T08:53:28Z</time>
      </trkpt>
      <trkpt lat="44.8891" lon="4.19164">
        <ele>1546</ele>
        <time>2019-10-13T08:53:34Z</time>
      </trkpt>
      <trkpt lat="44.88907" lon="4.19168">
        <ele>1545</ele>
        <time>2019-10-13T08:53:40Z</time>
      </trkpt>
      <trkpt lat="44.88901" lon="4.1917">
        <ele>1544</ele>
        <time>2019-10-13T08:54:01Z</time>
      </trkpt>
      <trkpt lat="44.88898" lon="4.19172">
        <ele>1544</ele>
        <time>2019-10-13T08:54:10Z</time>
      </trkpt>
      <trkpt lat="44.88895" lon="4.19175">
        <ele>1544</ele>
        <time>2019-10-13T08:54:18Z</time>
      </trkpt>
      <trkpt lat="44.88889" lon="4.19179">
        <ele>1543</ele>
        <time>2019-10-13T08:54:32Z</time>
      </trkpt>
      <trkpt lat="44.88886" lon="4.19185">
        <ele>1543</ele>
        <time>2019-10-13T08:54:38Z</time>
      </trkpt>
      <trkpt lat="44.88875" lon="4.19198">
        <ele>1543</ele>
        <time>2019-10-13T08:54:56Z</time>
      </trkpt>
      <trkpt lat="44.88872" lon="4.19201">
        <ele>1543</ele>
        <time>2019-10-13T08:55:02Z</time>
      </trkpt>
      <trkpt lat="44.88871" lon="4.19206">
        <ele>1544</ele>
        <time>2019-10-13T08:55:19Z</time>
      </trkpt>
      <trkpt lat="44.88867" lon="4.19213">
        <ele>1544</ele>
        <time>2019-10-13T08:55:25Z</time>
      </trkpt>
      <trkpt lat="44.88864" lon="4.19217">
        <ele>1544</ele>
        <time>2019-10-13T08:55:29Z</time>
      </trkpt>
      <trkpt lat="44.88861" lon="4.19225">
        <ele>1546</ele>
        <time>2019-10-13T08:56:04Z</time>
      </trkpt>
      <trkpt lat="44.88858" lon="4.19219">
        <ele>1552</ele>
        <time>2019-10-13T08:58:50Z</time>
      </trkpt>
      <trkpt lat="44.88853" lon="4.19217">
        <ele>1552</ele>
        <time>2019-10-13T08:58:53Z</time>
      </trkpt>
      <trkpt lat="44.8883" lon="4.19221">
        <ele>1552</ele>
        <time>2019-10-13T08:59:13Z</time>
      </trkpt>
      <trkpt lat="44.8882" lon="4.1923">
        <ele>1552</ele>
        <time>2019-10-13T08:59:21Z</time>
      </trkpt>
      <trkpt lat="44.88816" lon="4.19233">
        <ele>1553</ele>
        <time>2019-10-13T08:59:24Z</time>
      </trkpt>
      <trkpt lat="44.88808" lon="4.19236">
        <ele>1553</ele>
        <time>2019-10-13T08:59:31Z</time>
      </trkpt>
      <trkpt lat="44.88805" lon="4.19239">
        <ele>1553</ele>
        <time>2019-10-13T08:59:35Z</time>
      </trkpt>
      <trkpt lat="44.88802" lon="4.19243">
        <ele>1553</ele>
        <time>2019-10-13T08:59:40Z</time>
      </trkpt>
      <trkpt lat="44.88799" lon="4.19244">
        <ele>1554</ele>
        <time>2019-10-13T09:00:21Z</time>
      </trkpt>
      <trkpt lat="44.88796" lon="4.19241">
        <ele>1554</ele>
        <time>2019-10-13T09:00:41Z</time>
      </trkpt>
      <trkpt lat="44.88793" lon="4.19238">
        <ele>1554</ele>
        <time>2019-10-13T09:00:46Z</time>
      </trkpt>
      <trkpt lat="44.88766" lon="4.19248">
        <ele>1554</ele>
        <time>2019-10-13T09:01:19Z</time>
      </trkpt>
      <trkpt lat="44.8875" lon="4.19255">
        <ele>1554</ele>
        <time>2019-10-13T09:01:34Z</time>
      </trkpt>
      <trkpt lat="44.88741" lon="4.19265">
        <ele>1555</ele>
        <time>2019-10-13T09:01:43Z</time>
      </trkpt>
      <trkpt lat="44.88713" lon="4.19287">
        <ele>1555</ele>
        <time>2019-10-13T09:02:11Z</time>
      </trkpt>
      <trkpt lat="44.88704" lon="4.1929">
        <ele>1555</ele>
        <time>2019-10-13T09:02:20Z</time>
      </trkpt>
      <trkpt lat="44.887" lon="4.19291">
        <ele>1555</ele>
        <time>2019-10-13T09:02:23Z</time>
      </trkpt>
      <trkpt lat="44.88675" lon="4.19293">
        <ele>1555</ele>
        <time>2019-10-13T09:02:43Z</time>
      </trkpt>
      <trkpt lat="44.88679" lon="4.19294">
        <ele>1557</ele>
        <time>2019-10-13T09:03:42Z</time>
      </trkpt>
      <trkpt lat="44.88678" lon="4.1929">
        <ele>1558</ele>
        <time>2019-10-13T09:04:09Z</time>
      </trkpt>
      <trkpt lat="44.8867" lon="4.19288">
        <ele>1558</ele>
        <time>2019-10-13T09:04:17Z</time>
      </trkpt>
      <trkpt lat="44.88667" lon="4.19283">
        <ele>1558</ele>
        <time>2019-10-13T09:04:28Z</time>
      </trkpt>
      <trkpt lat="44.88666" lon="4.19278">
        <ele>1558</ele>
        <time>2019-10-13T09:04:41Z</time>
      </trkpt>
      <trkpt lat="44.88662" lon="4.19276">
        <ele>1558</ele>
        <time>2019-10-13T09:04:52Z</time>
      </trkpt>
      <trkpt lat="44.88658" lon="4.19276">
        <ele>1558</ele>
        <time>2019-10-13T09:05:00Z</time>
      </trkpt>
      <trkpt lat="44.88655" lon="4.19274">
        <ele>1557</ele>
        <time>2019-10-13T09:05:09Z</time>
      </trkpt>
      <trkpt lat="44.88651" lon="4.19273">
        <ele>1557</ele>
        <time>2019-10-13T09:05:15Z</time>
      </trkpt>
      <trkpt lat="44.88647" lon="4.19276">
        <ele>1557</ele>
        <time>2019-10-13T09:05:21Z</time>
      </trkpt>
      <trkpt lat="44.88639" lon="4.19277">
        <ele>1555</ele>
        <time>2019-10-13T09:05:42Z</time>
      </trkpt>
      <trkpt lat="44.88636" lon="4.19277">
        <ele>1554</ele>
        <time>2019-10-13T09:05:48Z</time>
      </trkpt>
      <trkpt lat="44.88632" lon="4.19277">
        <ele>1553</ele>
        <time>2019-10-13T09:05:58Z</time>
      </trkpt>
      <trkpt lat="44.88628" lon="4.19276">
        <ele>1553</ele>
        <time>2019-10-13T09:06:03Z</time>
      </trkpt>
      <trkpt lat="44.88625" lon="4.19273">
        <ele>1552</ele>
        <time>2019-10-13T09:06:10Z</time>
      </trkpt>
      <trkpt lat="44.88622" lon="4.19274">
        <ele>1550</ele>
        <time>2019-10-13T09:06:21Z</time>
      </trkpt>
      <trkpt lat="44.88617" lon="4.19275">
        <ele>1550</ele>
        <time>2019-10-13T09:06:26Z</time>
      </trkpt>
      <trkpt lat="44.88614" lon="4.19273">
        <ele>1549</ele>
        <time>2019-10-13T09:06:32Z</time>
      </trkpt>
      <trkpt lat="44.8861" lon="4.19271">
        <ele>1548</ele>
        <time>2019-10-13T09:06:38Z</time>
      </trkpt>
      <trkpt lat="44.88606" lon="4.1927">
        <ele>1547</ele>
        <time>2019-10-13T09:06:43Z</time>
      </trkpt>
      <trkpt lat="44.88603" lon="4.19268">
        <ele>1546</ele>
        <time>2019-10-13T09:06:48Z</time>
      </trkpt>
      <trkpt lat="44.88592" lon="4.1926">
        <ele>1544</ele>
        <time>2019-10-13T09:07:02Z</time>
      </trkpt>
      <trkpt lat="44.88582" lon="4.19252">
        <ele>1542</ele>
        <time>2019-10-13T09:07:12Z</time>
      </trkpt>
      <trkpt lat="44.8858" lon="4.19247">
        <ele>1542</ele>
        <time>2019-10-13T09:07:15Z</time>
      </trkpt>
      <trkpt lat="44.88582" lon="4.1923">
        <ele>1540</ele>
        <time>2019-10-13T09:07:24Z</time>
      </trkpt>
      <trkpt lat="44.88589" lon="4.19209">
        <ele>1538</ele>
        <time>2019-10-13T09:07:38Z</time>
      </trkpt>
      <trkpt lat="44.88587" lon="4.19202">
        <ele>1537</ele>
        <time>2019-10-13T09:07:43Z</time>
      </trkpt>
      <trkpt lat="44.88583" lon="4.19201">
        <ele>1536</ele>
        <time>2019-10-13T09:07:46Z</time>
      </trkpt>
      <trkpt lat="44.88579" lon="4.19199">
        <ele>1536</ele>
        <time>2019-10-13T09:07:49Z</time>
      </trkpt>
      <trkpt lat="44.88577" lon="4.19194">
        <ele>1535</ele>
        <time>2019-10-13T09:07:53Z</time>
      </trkpt>
      <trkpt lat="44.88575" lon="4.19189">
        <ele>1530</ele>
        <time>2019-10-13T09:08:59Z</time>
      </trkpt>
      <trkpt lat="44.88574" lon="4.19186">
        <ele>1530</ele>
        <time>2019-10-13T09:09:03Z</time>
      </trkpt>
      <trkpt lat="44.88572" lon="4.1918">
        <ele>1529</ele>
        <time>2019-10-13T09:09:09Z</time>
      </trkpt>
      <trkpt lat="44.88571" lon="4.19176">
        <ele>1529</ele>
        <time>2019-10-13T09:09:13Z</time>
      </trkpt>
      <trkpt lat="44.88567" lon="4.19161">
        <ele>1529</ele>
        <time>2019-10-13T09:09:26Z</time>
      </trkpt>
      <trkpt lat="44.88566" lon="4.19151">
        <ele>1528</ele>
        <time>2019-10-13T09:09:34Z</time>
      </trkpt>
      <trkpt lat="44.88567" lon="4.19145">
        <ele>1528</ele>
        <time>2019-10-13T09:09:38Z</time>
      </trkpt>
      <trkpt lat="44.8858" lon="4.19107">
        <ele>1528</ele>
        <time>2019-10-13T09:10:11Z</time>
      </trkpt>
      <trkpt lat="44.8859" lon="4.19073">
        <ele>1527</ele>
        <time>2019-10-13T09:10:34Z</time>
      </trkpt>
      <trkpt lat="44.88598" lon="4.19047">
        <ele>1527</ele>
        <time>2019-10-13T09:10:57Z</time>
      </trkpt>
      <trkpt lat="44.88617" lon="4.19007">
        <ele>1526</ele>
        <time>2019-10-13T09:11:29Z</time>
      </trkpt>
      <trkpt lat="44.8864" lon="4.18971">
        <ele>1524</ele>
        <time>2019-10-13T09:12:02Z</time>
      </trkpt>
      <trkpt lat="44.88644" lon="4.18964">
        <ele>1524</ele>
        <time>2019-10-13T09:12:09Z</time>
      </trkpt>
      <trkpt lat="44.88673" lon="4.18933">
        <ele>1522</ele>
        <time>2019-10-13T09:12:42Z</time>
      </trkpt>
      <trkpt lat="44.88695" lon="4.18903">
        <ele>1520</ele>
        <time>2019-10-13T09:13:14Z</time>
      </trkpt>
      <trkpt lat="44.88696" lon="4.189">
        <ele>1518</ele>
        <time>2019-10-13T09:13:46Z</time>
      </trkpt>
      <trkpt lat="44.88701" lon="4.18896">
        <ele>1513</ele>
        <time>2019-10-13T09:16:10Z</time>
      </trkpt>
      <trkpt lat="44.88706" lon="4.18892">
        <ele>1513</ele>
        <time>2019-10-13T09:16:16Z</time>
      </trkpt>
      <trkpt lat="44.88719" lon="4.18875">
        <ele>1513</ele>
        <time>2019-10-13T09:16:37Z</time>
      </trkpt>
      <trkpt lat="44.88714" lon="4.18869">
        <ele>1512</ele>
        <time>2019-10-13T09:16:42Z</time>
      </trkpt>
      <trkpt lat="44.88714" lon="4.18861">
        <ele>1512</ele>
        <time>2019-10-13T09:16:52Z</time>
      </trkpt>
      <trkpt lat="44.88735" lon="4.18847">
        <ele>1511</ele>
        <time>2019-10-13T09:17:11Z</time>
      </trkpt>
      <trkpt lat="44.8876" lon="4.18838">
        <ele>1511</ele>
        <time>2019-10-13T09:17:31Z</time>
      </trkpt>
      <trkpt lat="44.88785" lon="4.18825">
        <ele>1511</ele>
        <time>2019-10-13T09:17:52Z</time>
      </trkpt>
      <trkpt lat="44.88797" lon="4.18815">
        <ele>1510</ele>
        <time>2019-10-13T09:18:05Z</time>
      </trkpt>
      <trkpt lat="44.88801" lon="4.18809">
        <ele>1510</ele>
        <time>2019-10-13T09:18:10Z</time>
      </trkpt>
      <trkpt lat="44.8881" lon="4.18794">
        <ele>1510</ele>
        <time>2019-10-13T09:18:25Z</time>
      </trkpt>
      <trkpt lat="44.88827" lon="4.18747">
        <ele>1509</ele>
        <time>2019-10-13T09:18:57Z</time>
      </trkpt>
      <trkpt lat="44.88833" lon="4.18738">
        <ele>1509</ele>
        <time>2019-10-13T09:19:05Z</time>
      </trkpt>
      <trkpt lat="44.88843" lon="4.18705">
        <ele>1508</ele>
        <time>2019-10-13T09:19:31Z</time>
      </trkpt>
      <trkpt lat="44.88844" lon="4.18695">
        <ele>1508</ele>
        <time>2019-10-13T09:19:38Z</time>
      </trkpt>
      <trkpt lat="44.88848" lon="4.18679">
        <ele>1507</ele>
        <time>2019-10-13T09:20:02Z</time>
      </trkpt>
      <trkpt lat="44.8885" lon="4.18661">
        <ele>1507</ele>
        <time>2019-10-13T09:20:13Z</time>
      </trkpt>
      <trkpt lat="44.88851" lon="4.18653">
        <ele>1507</ele>
        <time>2019-10-13T09:20:19Z</time>
      </trkpt>
      <trkpt lat="44.88846" lon="4.18637">
        <ele>1506</ele>
        <time>2019-10-13T09:20:31Z</time>
      </trkpt>
      <trkpt lat="44.88846" lon="4.18629">
        <ele>1506</ele>
        <time>2019-10-13T09:20:37Z</time>
      </trkpt>
      <trkpt lat="44.88849" lon="4.18614">
        <ele>1506</ele>
        <time>2019-10-13T09:20:57Z</time>
      </trkpt>
      <trkpt lat="44.88847" lon="4.18608">
        <ele>1505</ele>
        <time>2019-10-13T09:21:57Z</time>
      </trkpt>
      <trkpt lat="44.88844" lon="4.18605">
        <ele>1505</ele>
        <time>2019-10-13T09:22:19Z</time>
      </trkpt>
      <trkpt lat="44.88842" lon="4.18597">
        <ele>1505</ele>
        <time>2019-10-13T09:22:25Z</time>
      </trkpt>
      <trkpt lat="44.88839" lon="4.1859">
        <ele>1505</ele>
        <time>2019-10-13T09:22:29Z</time>
      </trkpt>
      <trkpt lat="44.88834" lon="4.18583">
        <ele>1505</ele>
        <time>2019-10-13T09:22:32Z</time>
      </trkpt>
      <trkpt lat="44.88814" lon="4.18563">
        <ele>1505</ele>
        <time>2019-10-13T09:22:45Z</time>
      </trkpt>
      <trkpt lat="44.88801" lon="4.18545">
        <ele>1505</ele>
        <time>2019-10-13T09:22:54Z</time>
      </trkpt>
      <trkpt lat="44.88794" lon="4.18538">
        <ele>1505</ele>
        <time>2019-10-13T09:22:59Z</time>
      </trkpt>
      <trkpt lat="44.88767" lon="4.18492">
        <ele>1505</ele>
        <time>2019-10-13T09:23:31Z</time>
      </trkpt>
      <trkpt lat="44.8874" lon="4.1846">
        <ele>1505</ele>
        <time>2019-10-13T09:24:01Z</time>
      </trkpt>
      <trkpt lat="44.8872" lon="4.18429">
        <ele>1504</ele>
        <time>2019-10-13T09:24:31Z</time>
      </trkpt>
      <trkpt lat="44.88718" lon="4.18425">
        <ele>1504</ele>
        <time>2019-10-13T09:24:36Z</time>
      </trkpt>
      <trkpt lat="44.88711" lon="4.1841">
        <ele>1504</ele>
        <time>2019-10-13T09:24:48Z</time>
      </trkpt>
      <trkpt lat="44.88713" lon="4.18405">
        <ele>1504</ele>
        <time>2019-10-13T09:24:52Z</time>
      </trkpt>
      <trkpt lat="44.88716" lon="4.18402">
        <ele>1504</ele>
        <time>2019-10-13T09:24:57Z</time>
      </trkpt>
      <trkpt lat="44.88714" lon="4.18401">
        <ele>1504</ele>
        <time>2019-10-13T09:25:24Z</time>
      </trkpt>
      <trkpt lat="44.88708" lon="4.184">
        <ele>1504</ele>
        <time>2019-10-13T09:25:29Z</time>
      </trkpt>
      <trkpt lat="44.88705" lon="4.18388">
        <ele>1504</ele>
        <time>2019-10-13T09:25:36Z</time>
      </trkpt>
      <trkpt lat="44.88704" lon="4.18384">
        <ele>1504</ele>
        <time>2019-10-13T09:25:45Z</time>
      </trkpt>
      <trkpt lat="44.88703" lon="4.18377">
        <ele>1502</ele>
        <time>2019-10-13T09:29:51Z</time>
      </trkpt>
      <trkpt lat="44.88697" lon="4.18345">
        <ele>1503</ele>
        <time>2019-10-13T09:30:10Z</time>
      </trkpt>
      <trkpt lat="44.88696" lon="4.18332">
        <ele>1503</ele>
        <time>2019-10-13T09:30:18Z</time>
      </trkpt>
      <trkpt lat="44.88681" lon="4.18278">
        <ele>1503</ele>
        <time>2019-10-13T09:30:49Z</time>
      </trkpt>
      <trkpt lat="44.88671" lon="4.18249">
        <ele>1503</ele>
        <time>2019-10-13T09:31:13Z</time>
      </trkpt>
      <trkpt lat="44.88668" lon="4.18241">
        <ele>1503</ele>
        <time>2019-10-13T09:31:32Z</time>
      </trkpt>
      <trkpt lat="44.88666" lon="4.18236">
        <ele>1503</ele>
        <time>2019-10-13T09:31:42Z</time>
      </trkpt>
      <trkpt lat="44.8866" lon="4.18221">
        <ele>1504</ele>
        <time>2019-10-13T09:31:55Z</time>
      </trkpt>
      <trkpt lat="44.88646" lon="4.18196">
        <ele>1504</ele>
        <time>2019-10-13T09:32:16Z</time>
      </trkpt>
      <trkpt lat="44.88634" lon="4.1818">
        <ele>1504</ele>
        <time>2019-10-13T09:32:30Z</time>
      </trkpt>
      <trkpt lat="44.8863" lon="4.18175">
        <ele>1504</ele>
        <time>2019-10-13T09:32:34Z</time>
      </trkpt>
      <trkpt lat="44.88617" lon="4.18169">
        <ele>1504</ele>
        <time>2019-10-13T09:32:46Z</time>
      </trkpt>
      <trkpt lat="44.88597" lon="4.18174">
        <ele>1504</ele>
        <time>2019-10-13T09:33:03Z</time>
      </trkpt>
      <trkpt lat="44.88568" lon="4.18185">
        <ele>1503</ele>
        <time>2019-10-13T09:33:30Z</time>
      </trkpt>
      <trkpt lat="44.88561" lon="4.18185">
        <ele>1503</ele>
        <time>2019-10-13T09:33:36Z</time>
      </trkpt>
      <trkpt lat="44.88556" lon="4.18184">
        <ele>1503</ele>
        <time>2019-10-13T09:33:42Z</time>
      </trkpt>
      <trkpt lat="44.88555" lon="4.18182">
        <ele>1502</ele>
        <time>2019-10-13T09:34:04Z</time>
      </trkpt>
      <trkpt lat="44.88556" lon="4.18174">
        <ele>1502</ele>
        <time>2019-10-13T09:39:41Z</time>
      </trkpt>
      <trkpt lat="44.88565" lon="4.18164">
        <ele>1501</ele>
        <time>2019-10-13T09:39:59Z</time>
      </trkpt>
      <trkpt lat="44.8859" lon="4.18138">
        <ele>1501</ele>
        <time>2019-10-13T09:40:32Z</time>
      </trkpt>
      <trkpt lat="44.88594" lon="4.18137">
        <ele>1501</ele>
        <time>2019-10-13T09:40:38Z</time>
      </trkpt>
      <trkpt lat="44.88602" lon="4.18137">
        <ele>1501</ele>
        <time>2019-10-13T09:40:49Z</time>
      </trkpt>
      <trkpt lat="44.88606" lon="4.18135">
        <ele>1501</ele>
        <time>2019-10-13T09:40:54Z</time>
      </trkpt>
      <trkpt lat="44.88618" lon="4.18121">
        <ele>1501</ele>
        <time>2019-10-13T09:41:08Z</time>
      </trkpt>
      <trkpt lat="44.88624" lon="4.18115">
        <ele>1502</ele>
        <time>2019-10-13T09:41:17Z</time>
      </trkpt>
      <trkpt lat="44.88647" lon="4.18111">
        <ele>1502</ele>
        <time>2019-10-13T09:41:44Z</time>
      </trkpt>
      <trkpt lat="44.88653" lon="4.18109">
        <ele>1502</ele>
        <time>2019-10-13T09:41:49Z</time>
      </trkpt>
      <trkpt lat="44.88664" lon="4.18107">
        <ele>1502</ele>
        <time>2019-10-13T09:42:00Z</time>
      </trkpt>
      <trkpt lat="44.88669" lon="4.18108">
        <ele>1503</ele>
        <time>2019-10-13T09:42:09Z</time>
      </trkpt>
      <trkpt lat="44.88678" lon="4.18102">
        <ele>1503</ele>
        <time>2019-10-13T09:42:18Z</time>
      </trkpt>
      <trkpt lat="44.88682" lon="4.18096">
        <ele>1504</ele>
        <time>2019-10-13T09:42:29Z</time>
      </trkpt>
      <trkpt lat="44.88686" lon="4.18089">
        <ele>1504</ele>
        <time>2019-10-13T09:42:35Z</time>
      </trkpt>
      <trkpt lat="44.88694" lon="4.18087">
        <ele>1505</ele>
        <time>2019-10-13T09:42:44Z</time>
      </trkpt>
      <trkpt lat="44.887" lon="4.18081">
        <ele>1506</ele>
        <time>2019-10-13T09:42:53Z</time>
      </trkpt>
      <trkpt lat="44.88707" lon="4.18076">
        <ele>1506</ele>
        <time>2019-10-13T09:43:02Z</time>
      </trkpt>
      <trkpt lat="44.88715" lon="4.18073">
        <ele>1507</ele>
        <time>2019-10-13T09:43:09Z</time>
      </trkpt>
      <trkpt lat="44.88737" lon="4.18086">
        <ele>1509</ele>
        <time>2019-10-13T09:43:36Z</time>
      </trkpt>
      <trkpt lat="44.88742" lon="4.1809">
        <ele>1509</ele>
        <time>2019-10-13T09:43:41Z</time>
      </trkpt>
      <trkpt lat="44.88753" lon="4.18089">
        <ele>1510</ele>
        <time>2019-10-13T09:43:54Z</time>
      </trkpt>
      <trkpt lat="44.88779" lon="4.18093">
        <ele>1512</ele>
        <time>2019-10-13T09:44:24Z</time>
      </trkpt>
      <trkpt lat="44.88804" lon="4.18095">
        <ele>1515</ele>
        <time>2019-10-13T09:44:52Z</time>
      </trkpt>
      <trkpt lat="44.88832" lon="4.18112">
        <ele>1519</ele>
        <time>2019-10-13T09:45:27Z</time>
      </trkpt>
      <trkpt lat="44.88865" lon="4.18121">
        <ele>1522</ele>
        <time>2019-10-13T09:46:00Z</time>
      </trkpt>
      <trkpt lat="44.88902" lon="4.18132">
        <ele>1525</ele>
        <time>2019-10-13T09:46:33Z</time>
      </trkpt>
      <trkpt lat="44.88913" lon="4.18141">
        <ele>1526</ele>
        <time>2019-10-13T09:46:43Z</time>
      </trkpt>
      <trkpt lat="44.88937" lon="4.18176">
        <ele>1529</ele>
        <time>2019-10-13T09:47:10Z</time>
      </trkpt>
      <trkpt lat="44.88948" lon="4.18182">
        <ele>1529</ele>
        <time>2019-10-13T09:47:21Z</time>
      </trkpt>
      <trkpt lat="44.88952" lon="4.18182">
        <ele>1530</ele>
        <time>2019-10-13T09:47:24Z</time>
      </trkpt>
      <trkpt lat="44.88985" lon="4.18204">
        <ele>1532</ele>
        <time>2019-10-13T09:47:56Z</time>
      </trkpt>
      <trkpt lat="44.88994" lon="4.1821">
        <ele>1532</ele>
        <time>2019-10-13T09:48:04Z</time>
      </trkpt>
      <trkpt lat="44.89027" lon="4.18237">
        <ele>1534</ele>
        <time>2019-10-13T09:48:36Z</time>
      </trkpt>
      <trkpt lat="44.8906" lon="4.18265">
        <ele>1536</ele>
        <time>2019-10-13T09:49:07Z</time>
      </trkpt>
      <trkpt lat="44.89088" lon="4.18284">
        <ele>1538</ele>
        <time>2019-10-13T09:49:38Z</time>
      </trkpt>
      <trkpt lat="44.891" lon="4.18291">
        <ele>1539</ele>
        <time>2019-10-13T09:49:52Z</time>
      </trkpt>
      <trkpt lat="44.89108" lon="4.1829">
        <ele>1539</ele>
        <time>2019-10-13T09:50:01Z</time>
      </trkpt>
      <trkpt lat="44.89111" lon="4.18286">
        <ele>1539</ele>
        <time>2019-10-13T09:50:05Z</time>
      </trkpt>
      <trkpt lat="44.89128" lon="4.18289">
        <ele>1540</ele>
        <time>2019-10-13T09:50:24Z</time>
      </trkpt>
      <trkpt lat="44.89151" lon="4.18294">
        <ele>1541</ele>
        <time>2019-10-13T09:50:46Z</time>
      </trkpt>
      <trkpt lat="44.89165" lon="4.18301">
        <ele>1542</ele>
        <time>2019-10-13T09:51:02Z</time>
      </trkpt>
      <trkpt lat="44.8917" lon="4.18302">
        <ele>1543</ele>
        <time>2019-10-13T09:51:06Z</time>
      </trkpt>
      <trkpt lat="44.89198" lon="4.18303">
        <ele>1545</ele>
        <time>2019-10-13T09:51:38Z</time>
      </trkpt>
      <trkpt lat="44.89204" lon="4.18304">
        <ele>1545</ele>
        <time>2019-10-13T09:51:46Z</time>
      </trkpt>
      <trkpt lat="44.8921" lon="4.18304">
        <ele>1545</ele>
        <time>2019-10-13T09:51:54Z</time>
      </trkpt>
      <trkpt lat="44.89235" lon="4.18303">
        <ele>1547</ele>
        <time>2019-10-13T09:52:21Z</time>
      </trkpt>
      <trkpt lat="44.89246" lon="4.18298">
        <ele>1548</ele>
        <time>2019-10-13T09:52:33Z</time>
      </trkpt>
      <trkpt lat="44.89251" lon="4.18295">
        <ele>1549</ele>
        <time>2019-10-13T09:52:39Z</time>
      </trkpt>
      <trkpt lat="44.8926" lon="4.18284">
        <ele>1549</ele>
        <time>2019-10-13T09:52:51Z</time>
      </trkpt>
      <trkpt lat="44.89291" lon="4.18281">
        <ele>1552</ele>
        <time>2019-10-13T09:53:21Z</time>
      </trkpt>
      <trkpt lat="44.89304" lon="4.18283">
        <ele>1553</ele>
        <time>2019-10-13T09:53:35Z</time>
      </trkpt>
      <trkpt lat="44.89307" lon="4.18284">
        <ele>1553</ele>
        <time>2019-10-13T09:53:38Z</time>
      </trkpt>
      <trkpt lat="44.89311" lon="4.18284">
        <ele>1553</ele>
        <time>2019-10-13T09:53:43Z</time>
      </trkpt>
      <trkpt lat="44.8932" lon="4.18282">
        <ele>1554</ele>
        <time>2019-10-13T09:53:54Z</time>
      </trkpt>
      <trkpt lat="44.89325" lon="4.18279">
        <ele>1554</ele>
        <time>2019-10-13T09:54:00Z</time>
      </trkpt>
      <trkpt lat="44.89331" lon="4.18275">
        <ele>1555</ele>
        <time>2019-10-13T09:54:07Z</time>
      </trkpt>
      <trkpt lat="44.89341" lon="4.18285">
        <ele>1555</ele>
        <time>2019-10-13T09:54:22Z</time>
      </trkpt>
      <trkpt lat="44.89363" lon="4.18324">
        <ele>1557</ele>
        <time>2019-10-13T09:54:54Z</time>
      </trkpt>
      <trkpt lat="44.89371" lon="4.18355">
        <ele>1557</ele>
        <time>2019-10-13T09:55:16Z</time>
      </trkpt>
      <trkpt lat="44.89375" lon="4.18362">
        <ele>1558</ele>
        <time>2019-10-13T09:55:23Z</time>
      </trkpt>
      <trkpt lat="44.89387" lon="4.18358">
        <ele>1558</ele>
        <time>2019-10-13T09:55:41Z</time>
      </trkpt>
      <trkpt lat="44.89404" lon="4.18353">
        <ele>1558</ele>
        <time>2019-10-13T09:56:00Z</time>
      </trkpt>
      <trkpt lat="44.89424" lon="4.18359">
        <ele>1557</ele>
        <time>2019-10-13T09:56:21Z</time>
      </trkpt>
      <trkpt lat="44.89438" lon="4.18375">
        <ele>1556</ele>
        <time>2019-10-13T09:56:36Z</time>
      </trkpt>
      <trkpt lat="44.89443" lon="4.18378">
        <ele>1556</ele>
        <time>2019-10-13T09:56:43Z</time>
      </trkpt>
      <trkpt lat="44.89449" lon="4.18377">
        <ele>1555</ele>
        <time>2019-10-13T09:56:49Z</time>
      </trkpt>
      <trkpt lat="44.89456" lon="4.1838">
        <ele>1555</ele>
        <time>2019-10-13T09:57:05Z</time>
      </trkpt>
      <trkpt lat="44.89464" lon="4.1838">
        <ele>1554</ele>
        <time>2019-10-13T09:57:19Z</time>
      </trkpt>
      <trkpt lat="44.89471" lon="4.18381">
        <ele>1553</ele>
        <time>2019-10-13T09:57:26Z</time>
      </trkpt>
      <trkpt lat="44.89507" lon="4.18362">
        <ele>1551</ele>
        <time>2019-10-13T09:57:59Z</time>
      </trkpt>
      <trkpt lat="44.89527" lon="4.18359">
        <ele>1550</ele>
        <time>2019-10-13T09:58:13Z</time>
      </trkpt>
      <trkpt lat="44.89533" lon="4.1836">
        <ele>1550</ele>
        <time>2019-10-13T09:58:17Z</time>
      </trkpt>
      <trkpt lat="44.89549" lon="4.18369">
        <ele>1549</ele>
        <time>2019-10-13T09:58:32Z</time>
      </trkpt>
      <trkpt lat="44.89566" lon="4.18393">
        <ele>1546</ele>
        <time>2019-10-13T09:59:01Z</time>
      </trkpt>
      <trkpt lat="44.89572" lon="4.18394">
        <ele>1546</ele>
        <time>2019-10-13T09:59:12Z</time>
      </trkpt>
      <trkpt lat="44.8958" lon="4.18394">
        <ele>1545</ele>
        <time>2019-10-13T09:59:19Z</time>
      </trkpt>
      <trkpt lat="44.89586" lon="4.1839">
        <ele>1544</ele>
        <time>2019-10-13T09:59:27Z</time>
      </trkpt>
      <trkpt lat="44.89602" lon="4.18385">
        <ele>1542</ele>
        <time>2019-10-13T09:59:47Z</time>
      </trkpt>
      <trkpt lat="44.89609" lon="4.1839">
        <ele>1541</ele>
        <time>2019-10-13T09:59:57Z</time>
      </trkpt>
      <trkpt lat="44.89617" lon="4.18394">
        <ele>1541</ele>
        <time>2019-10-13T10:00:04Z</time>
      </trkpt>
      <trkpt lat="44.89629" lon="4.18404">
        <ele>1538</ele>
        <time>2019-10-13T10:00:31Z</time>
      </trkpt>
      <trkpt lat="44.89637" lon="4.18405">
        <ele>1538</ele>
        <time>2019-10-13T10:00:38Z</time>
      </trkpt>
      <trkpt lat="44.89667" lon="4.18412">
        <ele>1535</ele>
        <time>2019-10-13T10:01:10Z</time>
      </trkpt>
      <trkpt lat="44.89674" lon="4.18415">
        <ele>1534</ele>
        <time>2019-10-13T10:01:17Z</time>
      </trkpt>
      <trkpt lat="44.89687" lon="4.1842">
        <ele>1532</ele>
        <time>2019-10-13T10:01:37Z</time>
      </trkpt>
      <trkpt lat="44.89693" lon="4.1842">
        <ele>1531</ele>
        <time>2019-10-13T10:01:41Z</time>
      </trkpt>
      <trkpt lat="44.89705" lon="4.18416">
        <ele>1531</ele>
        <time>2019-10-13T10:01:49Z</time>
      </trkpt>
      <trkpt lat="44.89714" lon="4.18419">
        <ele>1529</ele>
        <time>2019-10-13T10:02:00Z</time>
      </trkpt>
      <trkpt lat="44.89744" lon="4.18436">
        <ele>1526</ele>
        <time>2019-10-13T10:02:32Z</time>
      </trkpt>
      <trkpt lat="44.89756" lon="4.18441">
        <ele>1526</ele>
        <time>2019-10-13T10:02:39Z</time>
      </trkpt>
      <trkpt lat="44.89768" lon="4.18442">
        <ele>1525</ele>
        <time>2019-10-13T10:02:46Z</time>
      </trkpt>
      <trkpt lat="44.89789" lon="4.18452">
        <ele>1522</ele>
        <time>2019-10-13T10:03:16Z</time>
      </trkpt>
      <trkpt lat="44.89802" lon="4.1846">
        <ele>1521</ele>
        <time>2019-10-13T10:03:29Z</time>
      </trkpt>
      <trkpt lat="44.89815" lon="4.18459">
        <ele>1520</ele>
        <time>2019-10-13T10:03:42Z</time>
      </trkpt>
      <trkpt lat="44.89838" lon="4.18467">
        <ele>1518</ele>
        <time>2019-10-13T10:03:59Z</time>
      </trkpt>
      <trkpt lat="44.89862" lon="4.18484">
        <ele>1516</ele>
        <time>2019-10-13T10:04:20Z</time>
      </trkpt>
      <trkpt lat="44.89868" lon="4.18486">
        <ele>1515</ele>
        <time>2019-10-13T10:04:26Z</time>
      </trkpt>
      <trkpt lat="44.89875" lon="4.1849">
        <ele>1515</ele>
        <time>2019-10-13T10:04:32Z</time>
      </trkpt>
      <trkpt lat="44.89883" lon="4.18498">
        <ele>1514</ele>
        <time>2019-10-13T10:04:38Z</time>
      </trkpt>
      <trkpt lat="44.8989" lon="4.18503">
        <ele>1513</ele>
        <time>2019-10-13T10:04:45Z</time>
      </trkpt>
      <trkpt lat="44.89919" lon="4.18517">
        <ele>1511</ele>
        <time>2019-10-13T10:05:09Z</time>
      </trkpt>
      <trkpt lat="44.89923" lon="4.18522">
        <ele>1510</ele>
        <time>2019-10-13T10:05:14Z</time>
      </trkpt>
    </trkseg>
  </trk>
</gpx>